Latest Weather Observations for Carnarvon

IDW60801

Issued at 9:43 am WST Tuesday 14 July 2020 (issued every 10 minutes, with the page automatically refreshed every 10 minutes)

About weather observations | Map of weather stations | Latest weather observations for WA | Other Formats
Station Details ID: 006011 Name: CARNARVON AIRPORT Lat: -24.89 Lon: 113.67 Height: 4.0 m
Data from the previous 72 hours. | See also: Recent months at Carnarvon
Date/Time
WST
Temp
°C
App
Temp
°C
Dew
Point
°C
Rel
Hum
%
Delta-T
°C
Wind Press
QNH
hPa
Press
MSL
hPa
Rain since
9am
mm
Dir  Spd
km/h
Gust
km/h
Spd
kts
Gust
kts
14/09:30am 21.1 22.2 17.9 82 2.0 SE 9 15 5 8 1018.3 1018.3 0.0
14/09:00am 20.8 21.9 17.2 80 2.2 ESE 7 11 4 6 1018.0 1018.0 0.0
14/08:30am 19.7 22.1 16.9 84 1.7 CALM 0 0 0 0 1017.7 1017.7 0.0
14/08:00am 17.5 17.9 16.4 93 0.7 NNE 9 11 5 6 1017.4 1017.4 0.0
14/07:30am 16.3 16.9 15.7 96 0.4 NNE 7 9 4 5 1017.1 1017.1 0.0
14/07:00am 16.4 16.2 15.8 96 0.4 NNE 11 13 6 7 1016.9 1016.9 0.0
14/06:30am 16.8 17.6 16.3 97 0.3 NNE 7 9 4 5 1016.6 1016.6 0.0
14/06:00am 16.4 17.1 16.1 98 0.2 NNE 7 11 4 6 1016.3 1016.3 0.0
14/05:30am 16.6 17.4 16.4 99 0.1 N 7 7 4 4 1015.7 1015.7 0.0
14/05:00am 15.8 16.2 15.2 96 0.3 NNE 7 9 4 5 1015.5 1015.5 0.0
14/04:30am 15.8 15.6 14.7 93 0.6 NNE 9 11 5 6 1015.4 1015.4 0.0
14/04:00am 16.1 15.9 14.8 92 0.7 N 9 11 5 6 1015.4 1015.4 0.0
14/03:30am 16.8 17.2 15.3 91 0.9 N 7 9 4 5 1015.5 1015.5 0.0
14/03:00am 16.8 16.9 14.4 86 1.4 N 7 7 4 4 1015.3 1015.3 0.0
14/02:30am 18.1 18.6 14.0 77 2.3 N 4 9 2 5 1015.5 1015.5 0.0
14/02:00am 20.5 20.2 15.5 73 3.0 NW 11 15 6 8 1015.5 1015.5 0.0
14/01:30am 20.6 20.5 16.0 75 2.8 NNW 11 15 6 8 1015.2 1015.2 0.0
14/01:00am 21.0 21.0 17.2 79 2.3 NW 13 17 7 9 1015.6 1015.6 0.0
14/12:30am 20.2 21.3 18.0 87 1.4 NW 9 11 5 6 1015.7 1015.7 0.0
14/12:00am 21.2 21.7 18.4 84 1.7 NW 13 15 7 8 1015.7 1015.7 0.0
 
Date/Time
WST
Temp
°C
App
Temp
°C
Dew
Point
°C
Rel
Hum
%
Delta-T
°C
Wind Press
QNH
hPa
Press
MSL
hPa
Rain since
9am
mm
Dir  Spd
km/h
Gust
km/h
Spd
kts
Gust
kts
13/11:30pm 21.5 21.3 18.5 83 1.9 WNW 17 20 9 11 1016.2 1016.2 0.0
13/11:00pm 21.3 21.6 18.7 85 1.6 WNW 15 19 8 10 1016.3 1016.3 0.0
13/10:30pm 21.0 22.5 19.7 92 0.8 WNW 11 15 6 8 1016.4 1016.4 0.0
13/10:00pm 20.5 21.7 19.0 91 0.9 WNW 11 15 6 8 1016.5 1016.5 0.0
13/09:30pm 20.7 21.9 19.0 90 1.1 W 11 15 6 8 1016.5 1016.5 0.0
13/09:00pm 21.2 22.1 19.3 89 1.2 WNW 13 15 7 8 1016.4 1016.4 0.0
13/08:30pm 21.1 22.2 18.9 87 1.4 W 11 13 6 7 1016.6 1016.6 0.0
13/08:00pm 21.5 22.8 19.4 88 1.3 WNW 11 15 6 8 1016.2 1016.2 0.0
13/07:30pm 21.5 22.6 19.6 89 1.2 W 13 17 7 9 1016.4 1016.4 0.0
13/07:00pm 21.4 22.4 19.5 89 1.2 W 13 19 7 10 1016.0 1016.0 0.0
13/06:30pm 21.4 22.6 19.0 86 1.5 W 11 15 6 8 1015.3 1015.3 0.0
13/06:00pm 21.4 21.8 18.2 82 2.0 W 13 19 7 10 1015.2 1015.2 0.0
13/05:30pm 22.1 22.3 17.7 76 2.7 W 13 19 7 10 1015.2 1015.2 0.0
13/05:00pm 22.8 22.2 17.5 72 3.3 W 17 24 9 13 1015.2 1015.2 0.0
13/04:30pm 24.1 22.5 16.1 61 4.9 W 19 24 10 13 1015.1 1015.1 0.0
13/04:00pm 23.7 21.9 15.5 60 4.9 W 19 22 10 12 1014.7 1014.7 0.0
13/03:30pm 24.1 22.5 16.1 61 4.9 WSW 19 24 10 13 1014.8 1014.8 0.0
13/03:00pm 23.9 21.7 14.9 57 5.4 WSW 20 26 11 14 1015.1 1015.1 0.0
13/02:30pm 24.6 22.3 14.1 52 6.2 WSW 19 24 10 13 1015.1 1015.1 0.0
13/02:00pm 25.7 23.2 13.5 46 7.2 WSW 19 20 10 11 1015.3 1015.3 0.0
13/01:30pm 24.7 22.8 14.2 52 6.2 W 17 20 9 11 1015.5 1015.5 0.0
13/01:00pm 24.9 23.3 13.8 50 6.5 WSW 15 19 8 10 1015.9 1015.9 0.0
13/12:59pm 24.8 23.1 13.7 50 6.5 WSW 15 19 8 10 1015.9 1015.9 0.0
13/12:49pm 24.9 23.8 14.4 52 6.2 SW 13 17 7 9 1016.0 1016.0 0.0
13/12:30pm 25.9 24.9 13.4 46 7.3 E 11 15 6 8 1016.3 1016.3 0.0
13/12:00pm 26.2 26.2 14.3 48 7.1 NNE 7 13 4 7 1017.0 1017.0 0.0
13/11:30am 25.3 25.2 15.0 53 6.2 N 9 13 5 7 1017.4 1017.4 0.0
13/11:00am 24.6 24.8 15.8 58 5.3 NNE 9 15 5 8 1018.0 1018.0 0.0
13/10:30am 24.4 24.4 17.1 63 4.5 NNE 13 17 7 9 1018.2 1018.2 0.0
13/10:00am 22.7 22.6 16.0 66 4.0 NNE 11 15 6 8 1018.6 1018.6 0.0
13/09:30am 20.9 20.2 15.4 71 3.3 NNE 13 15 7 8 1018.7 1018.7 0.0
13/09:00am 19.6 20.0 16.3 81 2.0 NNE 9 13 5 7 1018.5 1018.5 0.0
13/08:30am 18.2 18.9 16.0 87 1.3 NNE 7 9 4 5 1018.2 1018.2 0.0
13/08:00am 14.9 14.7 13.6 92 0.7 NE 7 7 4 4 1018.0 1018.0 0.0
13/07:30am 13.2 12.6 12.4 95 0.4 NNE 7 7 4 4 1017.8 1017.8 0.0
13/07:00am 13.4 12.6 12.8 96 0.3 NNE 9 9 5 5 1017.6 1017.6 0.0
13/06:30am 13.1 11.7 12.2 94 0.5 NNE 11 13 6 7 1017.2 1017.2 0.0
13/06:00am 12.8 11.5 11.4 91 0.7 NNE 9 11 5 6 1017.2 1017.2 0.0
13/05:30am 12.7 10.8 10.4 86 1.2 NNE 11 11 6 6 1016.9 1016.9 0.0
13/05:00am 13.3 12.0 11.4 88 1.0 NNE 9 11 5 6 1016.9 1016.9 0.0
13/04:30am 13.6 12.6 12.2 91 0.8 NNE 9 13 5 7 1016.8 1016.8 0.0
13/04:00am 13.7 12.1 12.8 94 0.5 NNE 13 13 7 7 1016.9 1016.9 0.0
13/03:30am 13.5 12.6 12.7 95 0.4 NE 9 11 5 6 1016.9 1016.9 0.0
13/03:00am 13.0 11.1 11.9 93 0.6 NE 13 13 7 7 1016.8 1016.8 0.0
13/02:30am 13.6 12.4 12.7 94 0.5 NE 11 11 6 6 1017.1 1017.1 0.0
13/02:00am 13.5 12.6 12.6 94 0.5 NE 9 11 5 6 1017.4 1017.4 0.0
13/01:30am 13.8 13.0 13.0 95 0.4 NE 9 11 5 6 1017.4 1017.4 0.0
13/01:00am 12.8 11.2 11.7 93 0.6 ENE 11 15 6 8 1017.5 1017.5 0.0
13/12:30am 13.1 11.8 12.5 96 0.3 ENE 11 11 6 6 1017.6 1017.6 0.0
13/12:00am 12.8 11.1 12.6 99 0.1 ENE 13 17 7 9 1017.6 1017.6 0.0
 
Date/Time
WST
Temp
°C
App
Temp
°C
Dew
Point
°C
Rel
Hum
%
Delta-T
°C
Wind Press
QNH
hPa
Press
MSL
hPa
Rain since
9am
mm
Dir  Spd
km/h
Gust
km/h
Spd
kts
Gust
kts
12/11:30pm 13.2 12.4 12.9 98 0.2 ENE 9 11 5 6 1017.7 1017.7 0.0
12/11:00pm 14.0 13.6 14.0 100 0.0 ENE 9 11 5 6 1018.0 1018.0 0.0
12/10:30pm 13.5 13.0 12.7 95 0.4 NNW 7 7 4 4 1017.9 1017.9 0.0
12/10:00pm 17.1 17.8 17.1 100 0.0 NW 9 11 5 6 1017.9 1017.9 0.0
12/09:30pm 17.8 18.2 17.2 96 0.4 NW 11 13 6 7 1017.8 1017.8 0.0
12/09:00pm 18.6 18.7 17.4 93 0.7 NW 13 15 7 8 1017.8 1017.8 0.0
12/08:30pm 18.5 18.8 17.0 91 0.9 NW 11 13 6 7 1017.7 1017.7 0.0
12/08:00pm 18.8 19.0 16.8 88 1.2 NW 11 13 6 7 1017.5 1017.5 0.0
12/07:30pm 18.7 18.7 15.2 80 2.0 NW 9 11 5 6 1017.4 1017.4 0.0
12/07:00pm 19.6 19.4 14.8 74 2.8 NW 9 13 5 7 1017.2 1017.2 0.0
12/06:30pm 20.6 19.6 14.7 69 3.5 NW 13 17 7 9 1017.1 1017.1 0.0
12/06:00pm 21.4 19.5 14.1 63 4.2 NW 17 20 9 11 1017.0 1017.0 0.0
12/05:30pm 22.8 20.5 13.0 54 5.6 NW 17 24 9 13 1017.0 1017.0 0.0
12/05:00pm 24.1 20.5 10.0 41 7.7 WNW 19 24 10 13 1017.1 1017.1 0.0
12/04:30pm 25.4 21.2 5.6 28 10.1 WNW 17 20 9 11 1017.1 1017.1 0.0
12/04:00pm 26.3 22.2 6.4 28 10.4 WNW 17 20 9 11 1017.0 1017.0 0.0
12/03:30pm 27.5 22.2 -0.5 16 13.0 NW 17 22 9 12 1016.9 1016.9 0.0
12/03:00pm 28.5 22.9 -2.6 13 14.0 NW 17 22 9 12 1017.0 1017.0 0.0
12/02:30pm 27.5 21.8 0.3 17 12.8 NW 20 26 11 14 1017.3 1017.3 0.0
12/02:00pm 27.3 21.7 3.7 22 11.8 WNW 22 30 12 16 1017.3 1017.3 0.0
12/01:30pm 28.6 22.8 -4.7 11 14.5 NNE 17 26 9 14 1017.6 1017.6 0.0
12/01:00pm 28.3 22.6 -3.8 12 14.1 N 17 24 9 13 1017.9 1017.9 0.0
12/12:30pm 27.8 21.5 -4.2 12 13.9 N 20 28 11 15 1018.5 1018.5 0.0
12/12:00pm 26.6 19.9 -4.0 13 13.2 N 22 28 12 15 1019.0 1019.0 0.0
12/11:30am 25.7 18.6 -4.7 13 12.9 NNE 24 32 13 17 1019.4 1019.4 0.0
12/11:00am 24.7 17.6 -4.6 14 12.3 NE 24 32 13 17 1019.8 1019.8 0.0
12/10:30am 23.9 16.8 -4.3 15 11.8 NE 24 32 13 17 1020.0 1020.0 0.0
12/10:00am 22.5 15.5 -3.7 17 11.0 NE 24 32 13 17 1020.1 1020.1 0.0
12/09:30am 20.7 13.2 -4.4 18 10.2 NE 26 33 14 18 1020.3 1020.3 0.0
12/09:00am 19.3 11.8 -4.2 20 9.4 ENE 26 33 14 18 1020.0 1020.0 0.0
12/08:30am 17.5 11.2 -3.8 23 8.5 ENE 20 26 11 14 1020.0 1020.0 0.0
12/08:00am 15.2 8.9 -4.2 26 7.5 ENE 20 24 11 13 1019.8 1019.8 0.0
12/07:30am 13.6 7.5 -4.1 29 6.7 ENE 19 22 10 12 1019.6 1019.6 0.0
12/07:00am 12.2 6.5 -4.0 32 6.1 ENE 17 20 9 11 1019.4 1019.4 0.0
12/06:30am 12.5 6.4 -3.7 32 6.1 ENE 19 20 10 11 1019.0 1019.0 0.0
12/06:00am 12.6 6.5 -3.6 32 6.1 ENE 19 20 10 11 1018.8 1018.8 0.0
12/05:30am 12.7 7.1 -3.1 33 6.1 ENE 17 19 9 10 1018.9 1018.9 0.0
12/05:00am 12.7 6.7 -3.1 33 6.1 ENE 19 20 10 11 1018.8 1018.8 0.0
12/04:30am 12.6 6.6 -2.8 34 6.0 E 19 22 10 12 1018.9 1018.9 0.0
12/04:00am 12.3 7.1 -2.7 35 5.8 E 15 17 8 9 1019.1 1019.1 0.0
12/03:30am 12.6 7.8 -2.4 35 5.9 E 13 17 7 9 1019.1 1019.1 0.0
12/03:00am 12.8 8.0 -2.6 34 6.0 E 13 15 7 8 1019.2 1019.2 0.0
12/02:30am 14.8 9.7 -2.1 31 6.8 E 15 19 8 10 1019.3 1019.3 0.0
12/02:00am 15.4 9.9 -2.1 30 7.1 E 17 22 9 12 1019.2 1019.2 0.0
12/01:30am 13.4 9.1 -1.3 36 5.9 E 11 15 6 8 1019.5 1019.5 0.0
12/01:00am 14.4 10.5 -1.2 34 6.4 E 9 13 5 7 1019.5 1019.5 0.0
12/12:30am 14.7 9.8 -0.6 35 6.4 E 15 17 8 9 1019.6 1019.6 0.0
12/12:00am 14.6 10.3 1.2 40 5.8 E 13 17 7 9 1019.6 1019.6 0.0
 
Date/Time
WST
Temp
°C
App
Temp
°C
Dew
Point
°C
Rel
Hum
%
Delta-T
°C
Wind Press
QNH
hPa
Press
MSL
hPa
Rain since
9am
mm
Dir  Spd
km/h
Gust
km/h
Spd
kts
Gust
kts
11/11:30pm 13.9 9.2 3.4 49 4.7 ESE 17 19 9 10 1019.9 1019.9 0.0
11/11:00pm 13.2 9.5 6.5 64 3.2 ESE 15 17 8 9 1020.0 1020.0 0.0
11/10:30pm 13.4 10.2 7.0 65 3.1 SE 13 15 7 8 1020.1 1020.1 0.0
11/10:00pm 14.7 12.0 8.9 68 2.9 SE 13 15 7 8 1020.2 1020.2 0.0
11/09:30pm 14.4 11.7 8.8 69 2.8 SE 13 13 7 7 1020.3 1020.3 0.0
11/09:00pm 15.3 13.2 9.9 70 2.8 SE 11 13 6 7 1020.2 1020.2 0.0
11/08:30pm 15.6 13.6 10.2 70 2.8 SSE 11 13 6 7 1020.2 1020.2 0.0
11/08:00pm 16.2 13.9 10.3 68 3.1 SSE 13 15 7 8 1020.1 1020.1 0.0
11/07:30pm 16.5 14.1 10.1 66 3.4 SSE 13 13 7 7 1020.0 1020.0 0.0
11/07:00pm 17.9 15.6 11.7 67 3.4 S 15 17 8 9 1019.8 1019.8 0.0
11/06:30pm 18.1 16.5 12.8 71 3.0 S 13 17 7 9 1019.5 1019.5 0.0
11/06:00pm 18.6 17.9 14.3 76 2.5 SSW 11 13 6 7 1019.2 1019.2 0.0
11/05:30pm 20.3 19.3 14.7 70 3.3 SSW 13 19 7 10 1019.2 1019.2 0.0
11/05:00pm 21.4 19.1 13.1 59 4.7 SSW 17 22 9 12 1019.2 1019.2 0.0
11/04:30pm 22.7 19.2 10.2 45 6.8 SSW 19 22 10 12 1019.3 1019.3 0.0
11/04:00pm 22.1 19.1 12.6 55 5.4 SSW 20 26 11 14 1019.4 1019.4 0.0
11/03:30pm 22.6 19.7 12.8 54 5.6 SSW 20 26 11 14 1019.3 1019.3 0.0
11/03:13pm 22.9 20.0 12.2 51 6.1 SW 19 30 10 16 1019.3 1019.3 0.0
11/03:00pm 28.2 24.9 0.0 16 13.3 W 7 13 4 7 1019.4 1019.4 0.0
11/02:30pm 28.4 24.7 0.2 16 13.4 E 9 17 5 9 1019.4 1019.4 0.0
11/02:00pm 28.0 24.3 -0.1 16 13.2 E 9 17 5 9 1019.6 1019.6 0.0
11/01:30pm 27.3 23.4 0.9 18 12.6 ENE 11 20 6 11 1020.0 1020.0 0.0
11/01:00pm 27.1 22.5 1.5 19 12.3 E 15 26 8 14 1020.4 1020.4 0.0
11/12:30pm 26.2 21.3 2.2 21 11.6 E 17 24 9 13 1021.1 1021.1 0.0
11/12:00pm 24.8 19.9 1.7 22 10.9 ENE 17 24 9 13 1021.6 1021.6 0.0
11/11:30am 24.3 18.8 1.9 23 10.6 E 20 28 11 15 1021.9 1021.9 0.0
11/11:00am 22.9 16.7 1.9 25 9.8 E 24 30 13 16 1022.2 1022.2 0.0
11/10:30am 22.1 15.9 2.2 27 9.3 E 24 30 13 16 1022.5 1022.5 0.0
11/10:00am 21.1 14.2 2.4 29 8.7 E 28 35 15 19 1022.7 1022.7 0.0

Other formats

Comma delimited format used in spreadsheet applications
http://www.bom.gov.au/fwo/IDW60801/IDW60801.94300.axf

JavaScript Object Notation format (JSON) in row-major order
http://www.bom.gov.au/fwo/IDW60801/IDW60801.94300.json

Data quality

Most of these data are generated automatically and are frequently updated. Quality checks on data are not normally performed. It is possible for incorrect values to appear. Refer to information at About Latest Weather Observations and please check the disclaimer before using these data.